Terminal Aerodrome Forecast
Issued by NWS

Home | Current Version | Previous Version | Text Only | Print | Product List | Glossary On
Versions: 1 2 3 4 5 6 7 8 9 10 11 12 13 14 15 16 17 18 19 20 21 22 23 24 25 26 27 28 29
000
FTAK31 PAFA 031735
TAFASC
TAF
PASC 031735Z 0318/0418 11007KT 1/2SM FZFG VV002
      TEMPO 0318/0321 3SM BR SCT003 BKN007 OVC060
     FM032100 09005KT P6SM SCT007 BKN060
     FM040400 33005KT 4SM BR OVC004
     FM040700 28005KT 1SM BR OVC004=

USA.gov is the U.S. government's official web portal to all federal, state and local government web resources and services.